createdAt,value
2023-03-29T00:02:41.000Z,81.4
2023-03-29T00:05:23.000Z,81.4
2023-03-29T00:08:02.000Z,81.4
2023-03-29T00:10:42.000Z,81.19
2023-03-29T00:13:23.000Z,80.98
2023-03-29T00:16:07.000Z,80.67
2023-03-29T00:18:49.000Z,80.67
2023-03-29T00:21:34.000Z,80.67
2023-03-29T00:24:17.000Z,80.67
2023-03-29T00:26:57.000Z,80.67
2023-03-29T00:29:37.000Z,81.09
2023-03-29T00:32:20.000Z,80.77
2023-03-29T00:35:01.000Z,81.29
2023-03-29T00:37:43.000Z,80.88
2023-03-29T00:40:24.000Z,80.57
2023-03-29T00:43:05.000Z,80.36
2023-03-29T00:45:44.000Z,80.32
2023-03-29T00:48:25.000Z,80.43
2023-03-29T00:51:07.000Z,80.84
2023-03-29T00:53:55.000Z,80.98
2023-03-29T00:56:36.000Z,81.4
2023-03-29T00:59:16.000Z,80.98
2023-03-29T01:01:56.000Z,81.05
2023-03-29T01:04:38.000Z,81.36
2023-03-29T01:07:20.000Z,80.94
2023-03-29T01:10:00.000Z,81.26
2023-03-29T01:12:43.000Z,80.94
2023-03-29T01:15:27.000Z,80.74
2023-03-29T01:18:08.000Z,80.94
2023-03-29T01:20:51.000Z,81.05
2023-03-29T01:23:34.000Z,81.26
2023-03-29T01:26:16.000Z,81.26
2023-03-29T01:28:59.000Z,81.36
2023-03-29T01:31:41.000Z,81.26
2023-03-29T01:34:24.000Z,80.63
2023-03-29T01:37:07.000Z,80.49
2023-03-29T01:39:48.000Z,79.87
2023-03-29T01:42:32.000Z,79.76
2023-03-29T01:45:12.000Z,79.55
2023-03-29T01:47:54.000Z,79.45
2023-03-29T01:50:36.000Z,79.66
2023-03-29T01:53:19.000Z,79.35
2023-03-29T01:56:02.000Z,79.03
2023-03-29T01:58:43.000Z,78.83
2023-03-29T02:01:25.000Z,79.03
2023-03-29T02:04:07.000Z,79.55
2023-03-29T02:06:47.000Z,79.97
2023-03-29T02:09:31.000Z,80.49
2023-03-29T02:12:11.000Z,80.49
2023-03-29T02:14:55.000Z,80.8
2023-03-29T02:17:36.000Z,80.94
2023-03-29T02:20:19.000Z,81.26
2023-03-29T02:23:00.000Z,80.84
2023-03-29T02:25:42.000Z,80.84
2023-03-29T02:28:25.000Z,80.94
2023-03-29T02:31:08.000Z,80.94
2023-03-29T02:33:48.000Z,80.53
2023-03-29T02:36:27.000Z,80.49
2023-03-29T02:39:09.000Z,80.08
2023-03-29T02:41:51.000Z,79.97
2023-03-29T02:44:33.000Z,79.87
2023-03-29T02:47:14.000Z,79.24
2023-03-29T02:49:56.000Z,79.66
2023-03-29T02:52:38.000Z,79.87
2023-03-29T02:55:22.000Z,80.04
2023-03-29T02:58:06.000Z,80.04
2023-03-29T03:00:48.000Z,79.87
2023-03-29T03:03:28.000Z,79.97
2023-03-29T03:06:20.000Z,80.08
2023-03-29T03:08:59.000Z,80.18
2023-03-29T03:11:41.000Z,80.49
2023-03-29T03:14:25.000Z,80.49
2023-03-29T03:17:07.000Z,80.04
2023-03-29T03:19:49.000Z,80.04
2023-03-29T03:22:29.000Z,80.15
2023-03-29T03:25:09.000Z,80.04
2023-03-29T03:27:47.000Z,80.04
2023-03-29T03:30:26.000Z,80.04
2023-03-29T03:33:08.000Z,80.32
2023-03-29T03:35:50.000Z,80.32
2023-03-29T03:38:33.000Z,80.32
2023-03-29T03:41:17.000Z,79.8
2023-03-29T03:44:00.000Z,79.69
2023-03-29T03:46:42.000Z,79.58
2023-03-29T03:49:24.000Z,79.38
2023-03-29T03:52:07.000Z,79.58
2023-03-29T03:54:51.000Z,79.38
2023-03-29T03:57:35.000Z,79.8
2023-03-29T04:00:15.000Z,79.55
2023-03-29T04:02:59.000Z,79.13
2023-03-29T04:05:41.000Z,78.92
2023-03-29T04:08:21.000Z,78.82
2023-03-29T04:11:07.000Z,78.61
2023-03-29T04:13:49.000Z,78.47
2023-03-29T04:16:33.000Z,79.3
2023-03-29T04:19:14.000Z,79.2
2023-03-29T04:21:55.000Z,78.78
2023-03-29T04:24:36.000Z,78.47
2023-03-29T04:27:15.000Z,78.27
2023-03-29T04:29:56.000Z,78.03
2023-03-29T04:32:38.000Z,78.44
2023-03-29T04:35:21.000Z,78.55
2023-03-29T04:38:06.000Z,79.06
2023-03-29T04:40:45.000Z,80.21
2023-03-29T04:43:25.000Z,81.66
2023-03-29T04:46:07.000Z,82.39
2023-03-29T04:48:49.000Z,82.39
2023-03-29T04:51:32.000Z,83.63
2023-03-29T04:54:16.000Z,83.94
2023-03-29T04:57:02.000Z,84.52
2023-03-29T04:59:43.000Z,85.14
2023-03-29T05:02:25.000Z,85.66
2023-03-29T05:05:11.000Z,85.14
2023-03-29T05:07:52.000Z,85.25
2023-03-29T05:10:33.000Z,85.42
2023-03-29T05:13:15.000Z,84.8
2023-03-29T05:15:56.000Z,84.9
2023-03-29T05:18:39.000Z,84.69
2023-03-29T05:21:20.000Z,85.0
2023-03-29T05:24:01.000Z,85.11
2023-03-29T05:26:44.000Z,84.86
2023-03-29T05:29:24.000Z,84.86
2023-03-29T05:32:08.000Z,84.86
2023-03-29T05:34:50.000Z,85.38
2023-03-29T05:37:32.000Z,85.17
2023-03-29T05:40:12.000Z,85.06
2023-03-29T05:42:54.000Z,85.03
2023-03-29T05:45:33.000Z,84.92
2023-03-29T05:48:15.000Z,84.72
2023-03-29T05:50:57.000Z,84.72
2023-03-29T05:53:44.000Z,84.72
2023-03-29T05:56:24.000Z,84.72
2023-03-29T05:59:05.000Z,84.82
2023-03-29T06:01:44.000Z,84.61
2023-03-29T06:04:24.000Z,84.51
2023-03-29T06:07:03.000Z,84.51
2023-03-29T06:09:43.000Z,84.82
2023-03-29T06:12:28.000Z,84.78
2023-03-29T06:15:10.000Z,84.68
2023-03-29T06:17:51.000Z,84.33
2023-03-29T06:20:33.000Z,84.22
2023-03-29T06:23:17.000Z,84.12
2023-03-29T06:25:59.000Z,84.84
2023-03-29T06:28:39.000Z,84.53
2023-03-29T06:31:20.000Z,84.84
2023-03-29T06:33:59.000Z,85.05
2023-03-29T06:36:39.000Z,85.47
2023-03-29T06:39:20.000Z,85.57
2023-03-29T06:42:00.000Z,85.68
2023-03-29T06:44:44.000Z,85.92
2023-03-29T06:47:24.000Z,86.13
2023-03-29T06:50:06.000Z,85.78
2023-03-29T06:52:47.000Z,85.68
2023-03-29T06:55:27.000Z,85.99
2023-03-29T06:58:09.000Z,85.63
2023-03-29T07:00:50.000Z,85.84
2023-03-29T07:03:32.000Z,86.57
2023-03-29T07:06:16.000Z,86.21
2023-03-29T07:09:00.000Z,85.18
2023-03-29T07:11:41.000Z,85.28
2023-03-29T07:14:22.000Z,85.18
2023-03-29T07:17:06.000Z,84.77
2023-03-29T07:19:49.000Z,84.21
2023-03-29T07:22:33.000Z,84.52
2023-03-29T07:25:17.000Z,84.63
2023-03-29T07:27:56.000Z,84.63
2023-03-29T07:30:37.000Z,84.07
2023-03-29T07:33:18.000Z,83.62
2023-03-29T07:35:59.000Z,83.1
2023-03-29T07:38:41.000Z,82.34
2023-03-29T07:41:23.000Z,82.61
2023-03-29T07:44:07.000Z,81.96
2023-03-29T07:46:49.000Z,81.68
2023-03-29T07:49:32.000Z,81.79
2023-03-29T07:52:14.000Z,82.2
2023-03-29T07:54:56.000Z,81.79
2023-03-29T07:57:36.000Z,81.44
2023-03-29T08:00:16.000Z,80.06
2023-03-29T08:02:57.000Z,81.13
2023-03-29T08:05:44.000Z,81.23
2023-03-29T08:08:30.000Z,80.93
2023-03-29T08:11:13.000Z,80.72
2023-03-29T08:13:57.000Z,80.27
2023-03-29T08:16:40.000Z,80.68
2023-03-29T08:19:23.000Z,80.23
2023-03-29T08:22:07.000Z,80.02
2023-03-29T08:24:50.000Z,80.3
2023-03-29T08:27:34.000Z,79.88
2023-03-29T08:30:26.000Z,79.64
2023-03-29T08:33:12.000Z,79.85
2023-03-29T08:35:57.000Z,79.33
2023-03-29T08:38:43.000Z,78.78
2023-03-29T08:41:24.000Z,77.92
2023-03-29T08:44:05.000Z,77.72
2023-03-29T08:46:45.000Z,77.51
2023-03-29T08:49:34.000Z,77.1
2023-03-29T08:52:17.000Z,77.82
2023-03-29T08:55:06.000Z,76.86
2023-03-29T08:57:45.000Z,76.76
2023-03-29T09:00:25.000Z,76.58
2023-03-29T09:03:08.000Z,76.58
2023-03-29T09:05:50.000Z,74.6
2023-03-29T09:08:33.000Z,74.94
2023-03-29T09:11:18.000Z,75.45
2023-03-29T09:13:59.000Z,75.21
2023-03-29T09:16:41.000Z,75.21
2023-03-29T09:19:23.000Z,74.77
2023-03-29T09:22:05.000Z,74.66
2023-03-29T09:24:44.000Z,73.54
2023-03-29T09:27:31.000Z,74.87
2023-03-29T09:30:12.000Z,75.01
2023-03-29T09:32:57.000Z,74.57
2023-03-29T09:35:42.000Z,74.12
2023-03-29T09:38:23.000Z,74.22
2023-03-29T09:41:05.000Z,72.96
2023-03-29T09:43:46.000Z,74.15
2023-03-29T09:46:30.000Z,72.2
2023-03-29T09:49:13.000Z,72.38
2023-03-29T09:51:56.000Z,70.81
2023-03-29T09:54:39.000Z,71.62
2023-03-29T09:57:25.000Z,71.12
2023-03-29T10:00:07.000Z,70.78
2023-03-29T10:02:49.000Z,71.25
2023-03-29T10:05:34.000Z,70.98
2023-03-29T10:08:18.000Z,69.93
2023-03-29T10:10:59.000Z,69.89
2023-03-29T10:13:41.000Z,68.84
2023-03-29T10:16:25.000Z,68.94
2023-03-29T10:19:10.000Z,69.15
2023-03-29T10:21:57.000Z,68.4
2023-03-29T10:24:39.000Z,68.84
2023-03-29T10:27:26.000Z,67.35
2023-03-29T10:30:14.000Z,64.73
2023-03-29T10:32:56.000Z,65.17
2023-03-29T10:35:39.000Z,67.72
2023-03-29T10:38:23.000Z,66.09
2023-03-29T10:41:05.000Z,66.97
2023-03-29T10:43:45.000Z,64.81
2023-03-29T10:46:25.000Z,63.89
2023-03-29T10:49:14.000Z,65.01
2023-03-29T10:51:57.000Z,65.52
2023-03-29T10:54:39.000Z,64.7
2023-03-29T10:57:22.000Z,64.29
2023-03-29T11:00:07.000Z,64.5
2023-03-29T11:02:50.000Z,64.97
2023-03-29T11:05:33.000Z,64.56
2023-03-29T11:08:16.000Z,65.37
2023-03-29T11:10:58.000Z,66.06
2023-03-29T11:13:43.000Z,63.07
2023-03-29T11:16:24.000Z,65.28
2023-03-29T11:19:05.000Z,63.24
2023-03-29T11:21:44.000Z,62.02
2023-03-29T11:24:25.000Z,64.06
2023-03-29T11:27:04.000Z,62.97
2023-03-29T11:29:45.000Z,62.37
2023-03-29T11:32:25.000Z,61.74
2023-03-29T11:35:07.000Z,62.17
2023-03-29T11:37:49.000Z,64.18
2023-03-29T11:40:36.000Z,61.94
2023-03-29T11:43:19.000Z,62.82
2023-03-29T11:46:00.000Z,62.16
2023-03-29T11:48:43.000Z,61.32
2023-03-29T11:51:26.000Z,63.07
2023-03-29T11:54:11.000Z,63.51
2023-03-29T11:56:53.000Z,63.74
2023-03-29T11:59:34.000Z,62.37
2023-03-29T12:02:18.000Z,61.87
2023-03-29T12:05:00.000Z,63.16
2023-03-29T12:07:44.000Z,63.33
2023-03-29T12:10:26.000Z,60.71
2023-03-29T12:13:13.000Z,61.66
2023-03-29T12:15:57.000Z,61.97
2023-03-29T12:18:41.000Z,59.2
2023-03-29T12:21:24.000Z,58.18
2023-03-29T12:24:08.000Z,59.53
2023-03-29T12:26:48.000Z,59.34
2023-03-29T12:29:28.000Z,58.13
2023-03-29T12:32:08.000Z,59.85
2023-03-29T12:34:48.000Z,59.5
2023-03-29T12:37:31.000Z,60.31
2023-03-29T12:40:10.000Z,59.91
2023-03-29T12:42:52.000Z,59.1
2023-03-29T12:45:35.000Z,59.03
2023-03-29T12:48:18.000Z,59.66
2023-03-29T12:51:02.000Z,57.2
2023-03-29T12:53:44.000Z,59.66
2023-03-29T12:56:26.000Z,61.13
2023-03-29T12:59:07.000Z,58.97
2023-03-29T13:01:50.000Z,60.2
2023-03-29T13:04:32.000Z,61.46
2023-03-29T13:07:21.000Z,59.03
2023-03-29T13:10:04.000Z,60.14
2023-03-29T13:12:44.000Z,58.85
2023-03-29T13:15:25.000Z,61.16
2023-03-29T13:18:09.000Z,59.16
2023-03-29T13:20:57.000Z,59.39
2023-03-29T13:23:37.000Z,60.71
2023-03-29T13:26:20.000Z,61.93
2023-03-29T13:29:02.000Z,61.39
2023-03-29T13:31:44.000Z,61.66
2023-03-29T13:34:27.000Z,60.58
2023-03-29T13:37:12.000Z,61.18
2023-03-29T13:40:03.000Z,59.66
2023-03-29T13:42:57.000Z,60.65
2023-03-29T13:45:42.000Z,59.36
2023-03-29T13:48:27.000Z,61.16
2023-03-29T13:51:09.000Z,60.35
2023-03-29T13:53:55.000Z,60.72
2023-03-29T13:56:40.000Z,60.57
2023-03-29T13:59:23.000Z,60.26
2023-03-29T14:02:10.000Z,58.26
2023-03-29T14:04:52.000Z,61.63
2023-03-29T14:07:37.000Z,60.72
2023-03-29T14:10:24.000Z,60.55
2023-03-29T14:13:12.000Z,61.99
2023-03-29T14:15:58.000Z,60.2
2023-03-29T14:18:42.000Z,63.34
2023-03-29T14:21:24.000Z,61.99
2023-03-29T14:24:08.000Z,60.35
2023-03-29T14:26:53.000Z,62.54
2023-03-29T14:29:39.000Z,60.11
2023-03-29T14:32:27.000Z,61.13
2023-03-29T14:35:10.000Z,60.82
2023-03-29T14:37:56.000Z,61.59
2023-03-29T14:40:53.000Z,61.18
2023-03-29T14:43:36.000Z,61.41
2023-03-29T14:46:19.000Z,62.4
2023-03-29T14:49:02.000Z,62.24
2023-03-29T14:51:44.000Z,61.4
2023-03-29T14:54:28.000Z,61.74
2023-03-29T14:57:14.000Z,61.8
2023-03-29T14:59:58.000Z,61.05
2023-03-29T15:02:42.000Z,63.18
2023-03-29T15:05:28.000Z,62.71
2023-03-29T15:08:25.000Z,63.21
2023-03-29T15:11:09.000Z,62.78
2023-03-29T15:13:54.000Z,63.69
2023-03-29T15:16:38.000Z,63.72
2023-03-29T15:19:23.000Z,64.13
2023-03-29T15:22:09.000Z,63.92
2023-03-29T15:24:54.000Z,63.72
2023-03-29T15:27:37.000Z,64.33
2023-03-29T15:30:23.000Z,64.94
2023-03-29T15:33:08.000Z,64.03
2023-03-29T15:35:51.000Z,63.62
2023-03-29T15:38:38.000Z,64.73
2023-03-29T15:41:21.000Z,64.94
2023-03-29T15:44:04.000Z,66.63
2023-03-29T15:46:54.000Z,65.75
2023-03-29T15:50:01.000Z,65.04
2023-03-29T15:52:50.000Z,66.26
2023-03-29T15:55:39.000Z,66.42
2023-03-29T15:59:04.000Z,66.96
2023-03-29T16:01:45.000Z,67.97
2023-03-29T16:04:27.000Z,68.59
2023-03-29T16:07:09.000Z,69.23
2023-03-29T16:10:04.000Z,69.97
2023-03-29T16:12:48.000Z,70.28
2023-03-29T16:15:38.000Z,72.41
2023-03-29T16:18:21.000Z,72.45
2023-03-29T16:21:07.000Z,74.11
2023-03-29T16:23:51.000Z,73.84
2023-03-29T16:26:34.000Z,74.79
2023-03-29T16:29:18.000Z,77.64
2023-03-29T16:32:03.000Z,78.12
2023-03-29T16:34:50.000Z,79.25
2023-03-29T16:37:39.000Z,80.98
2023-03-29T16:40:22.000Z,80.54
2023-03-29T16:43:05.000Z,82.07
2023-03-29T16:45:56.000Z,81.86
2023-03-29T16:48:42.000Z,81.45
2023-03-29T16:51:28.000Z,81.66
2023-03-29T16:54:14.000Z,81.76
2023-03-29T16:57:06.000Z,81.35
2023-03-29T16:59:54.000Z,81.15
2023-03-29T17:02:43.000Z,81.25
2023-03-29T17:05:26.000Z,80.57
2023-03-29T17:08:12.000Z,81.29
2023-03-29T17:10:54.000Z,81.29
2023-03-29T17:13:48.000Z,80.68
2023-03-29T17:16:33.000Z,80.47
2023-03-29T17:19:23.000Z,80.16
2023-03-29T17:22:07.000Z,80.37
2023-03-29T17:24:55.000Z,80.1
2023-03-29T17:27:39.000Z,80.3
2023-03-29T17:30:25.000Z,80.51
2023-03-29T17:33:09.000Z,80.82
2023-03-29T17:35:57.000Z,81.16
2023-03-29T17:38:42.000Z,81.57
2023-03-29T17:41:25.000Z,81.91
2023-03-29T17:44:09.000Z,82.15
2023-03-29T17:46:55.000Z,82.56
2023-03-29T17:49:36.000Z,82.7
2023-03-29T17:52:20.000Z,83.05
2023-03-29T17:55:14.000Z,83.05
2023-03-29T17:58:03.000Z,83.7
2023-03-29T18:00:53.000Z,83.91
2023-03-29T18:03:42.000Z,84.25
2023-03-29T18:06:29.000Z,84.36
2023-03-29T18:09:25.000Z,84.77
2023-03-29T18:12:17.000Z,84.36
2023-03-29T18:15:01.000Z,84.05
2023-03-29T18:17:44.000Z,84.29
2023-03-29T18:20:43.000Z,83.68
2023-03-29T18:23:28.000Z,83.68
2023-03-29T18:26:11.000Z,83.47
2023-03-29T18:28:53.000Z,83.47
2023-03-29T18:31:39.000Z,83.27
2023-03-29T18:34:26.000Z,83.17
2023-03-29T18:37:09.000Z,82.86
2023-03-29T18:39:53.000Z,82.86
2023-03-29T18:42:42.000Z,82.65
2023-03-29T18:45:23.000Z,82.45
2023-03-29T18:48:08.000Z,82.24
2023-03-29T18:50:57.000Z,81.84
2023-03-29T18:53:40.000Z,82.04
2023-03-29T18:56:24.000Z,82.65
2023-03-29T18:59:07.000Z,82.35
2023-03-29T19:01:49.000Z,82.96
2023-03-29T19:04:34.000Z,82.96
2023-03-29T19:07:18.000Z,83.27
2023-03-29T19:10:04.000Z,83.27
2023-03-29T19:12:46.000Z,82.76
2023-03-29T19:15:27.000Z,82.55
2023-03-29T19:19:00.000Z,82.04
2023-03-29T19:21:58.000Z,81.9
2023-03-29T19:24:46.000Z,82.0
2023-03-29T19:27:32.000Z,82.0
2023-03-29T19:30:17.000Z,82.51
2023-03-29T19:33:07.000Z,82.55
2023-03-29T19:35:49.000Z,82.65
2023-03-29T19:38:36.000Z,82.35
2023-03-29T19:41:19.000Z,82.35
2023-03-29T19:44:11.000Z,82.04
2023-03-29T19:47:11.000Z,82.24
2023-03-29T19:49:56.000Z,82.35
2023-03-29T19:52:43.000Z,82.14
2023-03-29T19:55:26.000Z,82.14
2023-03-29T19:58:11.000Z,82.04
2023-03-29T20:01:00.000Z,81.94
2023-03-29T20:03:44.000Z,81.73
2023-03-29T20:06:28.000Z,81.52
2023-03-29T20:09:13.000Z,81.73
2023-03-29T20:12:00.000Z,81.73
2023-03-29T20:14:44.000Z,81.73
2023-03-29T20:17:25.000Z,81.84
2023-03-29T20:20:12.000Z,81.94
2023-03-29T20:22:57.000Z,82.28
2023-03-29T20:25:42.000Z,82.18
2023-03-29T20:28:23.000Z,81.98
2023-03-29T20:31:10.000Z,82.49
2023-03-29T20:33:57.000Z,82.59
2023-03-29T20:36:44.000Z,82.83
2023-03-29T20:39:26.000Z,82.93
2023-03-29T20:42:09.000Z,83.14
2023-03-29T20:44:51.000Z,83.04
2023-03-29T20:47:36.000Z,83.55
2023-03-29T20:50:21.000Z,83.76
2023-03-29T20:53:03.000Z,83.86
2023-03-29T20:55:46.000Z,84.31
2023-03-29T20:58:35.000Z,84.52
2023-03-29T21:01:19.000Z,84.52
2023-03-29T21:04:05.000Z,84.72
2023-03-29T21:06:58.000Z,84.61
2023-03-29T21:09:43.000Z,84.82
2023-03-29T21:12:26.000Z,84.72
2023-03-29T21:15:18.000Z,84.92
2023-03-29T21:18:01.000Z,85.03
2023-03-29T21:20:44.000Z,85.13
2023-03-29T21:23:29.000Z,84.72
2023-03-29T21:26:20.000Z,84.92
2023-03-29T21:29:06.000Z,85.03
2023-03-29T21:31:50.000Z,84.92
2023-03-29T21:34:34.000Z,85.03
2023-03-29T21:37:19.000Z,84.92
2023-03-29T21:40:01.000Z,85.03
2023-03-29T21:42:54.000Z,85.03
2023-03-29T21:45:36.000Z,84.82
2023-03-29T21:48:23.000Z,85.23
2023-03-29T21:51:08.000Z,85.54
2023-03-29T21:53:52.000Z,85.74
2023-03-29T21:56:37.000Z,85.64
2023-03-29T21:59:23.000Z,85.44
2023-03-29T22:02:05.000Z,85.6
2023-03-29T22:04:47.000Z,85.5
2023-03-29T22:07:35.000Z,85.39
2023-03-29T22:10:17.000Z,85.3
2023-03-29T22:12:59.000Z,85.5
2023-03-29T22:15:44.000Z,85.39
2023-03-29T22:18:33.000Z,85.39
2023-03-29T22:21:18.000Z,85.5
2023-03-29T22:24:03.000Z,85.91
2023-03-29T22:26:50.000Z,85.66
2023-03-29T22:29:35.000Z,85.87
2023-03-29T22:32:20.000Z,85.77
2023-03-29T22:35:03.000Z,85.46
2023-03-29T22:37:45.000Z,86.07
2023-03-29T22:40:27.000Z,86.44
2023-03-29T22:43:14.000Z,86.65
2023-03-29T22:45:58.000Z,86.55
2023-03-29T22:48:45.000Z,86.44
2023-03-29T22:51:27.000Z,86.65
2023-03-29T22:54:11.000Z,86.34
2023-03-29T22:57:00.000Z,86.04
2023-03-29T22:59:47.000Z,85.83
2023-03-29T23:02:30.000Z,85.79
2023-03-29T23:05:13.000Z,86.1
2023-03-29T23:07:56.000Z,86.4
2023-03-29T23:10:42.000Z,86.71
2023-03-29T23:13:26.000Z,86.4
2023-03-29T23:16:08.000Z,86.51
2023-03-29T23:18:52.000Z,86.81
2023-03-29T23:21:37.000Z,86.91
2023-03-29T23:24:20.000Z,87.22
2023-03-29T23:27:09.000Z,87.43
2023-03-29T23:29:53.000Z,87.43
2023-03-29T23:32:36.000Z,87.43
2023-03-29T23:35:22.000Z,87.43
2023-03-29T23:38:07.000Z,87.63
2023-03-29T23:40:50.000Z,87.73
2023-03-29T23:43:42.000Z,88.35
2023-03-29T23:46:25.000Z,88.56
2023-03-29T23:49:14.000Z,88.96
2023-03-29T23:51:58.000Z,88.96
2023-03-29T23:54:42.000Z,88.96
2023-03-29T23:57:27.000Z,88.76
